Hightown, United Kingdom
Current Conditions -  °F | °C
As of 9:20 AM on Thursday 18 Dec 2014 (Local Time) from EGGP Reporting Station
Light Rain Light Rain  
Wind Chill: 55°   Ceiling: 2600
Heat Index: 55°   Visibility: 6mi
Dew Point: 50°   Wind: 23mph
Humidity: 82%   Direction: 220°SW
Pressure: 29.62"   Gusts: 39mph
Location:  53.52°N, 3.05°W
Report Text: EGGP 180920Z 22020G34KT 9999 -RA SCT019 BKN026 13/10 Q1003
Loading
Personal Weather Stations






























Interactive Weather Map New forecast layout! Learn more

10-Day Weather Forecast

Advertisements
Track Severe Weather on mobile